Pagrindinis puslapis
METAR-TAF:

METAR-TAF

Oro uostai :

Jerevanas, Armėnija

platuma: 40-08-50N, ilguma: 044-23-45E, Aukštis: 865 m

Dabartinis oras

Ataskaita buvo paskelbta 26 minutes, ne 23:30 UTC
Vėjas 4 kt iš Rytų
Temperatūra 3°C
Drėgmė 93%
Slėgis 1009 hPa
Matomumas 10 km arba daugiau

METAR: UDYZ 302330Z 09004KT 9999 NSC 03/02 Q1009 R09/190065 NOSIG

Laikas: 03:56 (23:56 UTC)

Prognozė

Ataskaita buvo paskelbta 44 minutes, ne 23:12 UTC
Prognozė galioja nuo 31 metu 00 UTC su 31 metu 24 UTC
Vėjas 6 kt iš Pietų/Pietryčių
Matomumas 10 km arba daugiau
Mažai debesys ne aukštis 4000 ft
Išsisklaidę debesys ne aukštis 10000 ft
Laikinai
nuo 31 metu 08 UTC su 31 metu 18 UTC
Vėjas 16 kt nuo kintamojo kryptimis
Išsisklaidę debesys ne aukštis 4000 ft, Liūtiniai kamuoliniai debesys.

TAF: UDYZ 302312Z 3100/3124 16006KT 9999 FEW040 SCT100 TEMPO 3108/3118 VRB16KT SCT040CB

Orai ataskaitas ir orų prognozės (METAR, TAF).

turimą stotys yra geltonos ir raudonos taškus žemėlapyje.

Perkelti pele per norėdami pamatyti stoties vardą.

Tada spustelėkite, norėdami matyti oro stebėjimo ir prognozės.

Norėdami pakeisti žemėlapį: spustelėkite ant žalios mygtukų su juodo kryžiaus žemyn,; žalią mygtuką su brūkšneliu, jei norite nutolinti; arba žalių rodyklių gretimoms žemėlapius.


METAR-TAF: